Map

Track Data

SID SEASON NUMBER BASIN SUBBASIN NAME ISO_TIME NATURE LAT LON WMO_WIND WMO_PRES WMO_AGENCY TRACK_TYPE DIST2LAND LANDFALL IFLAG USA_AGENCY USA_ATCF_ID USA_LAT USA_LON USA_RECORD USA_STATUS USA_WIND USA_PRES USA_SSHS USA_R34_NE USA_R34_SE USA_R34_SW USA_R34_NW USA_R50_NE USA_R50_SE USA_R50_SW USA_R50_NW USA_R64_NE USA_R64_SE USA_R64_SW USA_R64_NW USA_POCI USA_ROCI USA_RMW USA_EYE TOKYO_LAT TOKYO_LON TOKYO_GRADE TOKYO_WIND TOKYO_PRES TOKYO_R50_DIR TOKYO_R50_LONG TOKYO_R50_SHORT TOKYO_R30_DIR TOKYO_R30_LONG TOKYO_R30_SHORT TOKYO_LAND CMA_LAT CMA_LON CMA_CAT CMA_WIND CMA_PRES HKO_LAT HKO_LON HKO_CAT HKO_WIND HKO_PRES NEWDELHI_LAT NEWDELHI_LON NEWDELHI_GRADE NEWDELHI_WIND NEWDELHI_PRES NEWDELHI_CI NEWDELHI_DP NEWDELHI_POCI REUNION_LAT REUNION_LON REUNION_TYPE REUNION_WIND REUNION_PRES REUNION_TNUM REUNION_CI REUNION_RMW REUNION_R34_NE REUNION_R34_SE REUNION_R34_SW REUNION_R34_NW REUNION_R50_NE REUNION_R50_SE REUNION_R50_SW REUNION_R50_NW REUNION_R64_NE REUNION_R64_SE REUNION_R64_SW REUNION_R64_NW BOM_LAT BOM_LON BOM_TYPE BOM_WIND BOM_PRES BOM_TNUM BOM_CI BOM_RMW BOM_R34_NE BOM_R34_SE BOM_R34_SW BOM_R34_NW BOM_R50_NE BOM_R50_SE BOM_R50_SW BOM_R50_NW BOM_R64_NE BOM_R64_SE BOM_R64_SW BOM_R64_NW BOM_ROCI BOM_POCI BOM_EYE BOM_POS_METHOD BOM_PRES_METHOD NADI_LAT NADI_LON NADI_CAT NADI_WIND NADI_PRES WELLINGTON_LAT WELLINGTON_LON WELLINGTON_WIND WELLINGTON_PRES DS824_LAT DS824_LON DS824_STAGE DS824_WIND DS824_PRES TD9636_LAT TD9636_LON TD9636_STAGE TD9636_WIND TD9636_PRES TD9635_LAT TD9635_LON TD9635_WIND TD9635_PRES TD9635_ROCI NEUMANN_LAT NEUMANN_LON NEUMANN_CLASS NEUMANN_WIND NEUMANN_PRES MLC_LAT MLC_LON MLC_CLASS MLC_WIND MLC_PRES USA_GUST BOM_GUST BOM_GUST_PER REUNION_GUST REUNION_GUST_PER USA_SEAHGT USA_SEARAD_NE USA_SEARAD_SE USA_SEARAD_SW USA_SEARAD_NW STORM_SPEED STORM_DIR
1949270N13270 1949 85 EP MM NOT_NAMED 1949-09-27 06:00:00 TS 13.2000 -90.0000 30 hurdat_atl main 39 39 O_____________ hurdat_atl AL111949 13.2000 -90.0000 TD 30 -1 1 317
1949270N13270 1949 85 EP MM NOT_NAMED 1949-09-27 09:00:00 TS 13.2500 -90.0475 main 31 31 P_____________ AL111949 13.2500 -90.0475 TD 30 -1 1 317
1949270N13270 1949 85 EP MM NOT_NAMED 1949-09-27 12:00:00 TS 13.3000 -90.1000 30 hurdat_atl main 39 39 O_____________ hurdat_atl AL111949 13.3000 -90.1000 TD 30 -1 1 315
1949270N13270 1949 85 EP MM NOT_NAMED 1949-09-27 15:00:00 TS 13.3500 -90.1575 main 39 39 P_____________ AL111949 13.3500 -90.1575 TD 30 -1 1 317
1949270N13270 1949 85 EP MM NOT_NAMED 1949-09-27 18:00:00 TS 13.4000 -90.2000 30 hurdat_atl main 39 39 O_____________ hurdat_atl AL111949 13.4000 -90.2000 TD 30 -1 1 332
1949270N13270 1949 85 EP MM NOT_NAMED 1949-09-27 21:00:00 TS 13.4425 -90.2075 main 39 31 P_____________ AL111949 13.4425 -90.2075 TD 30 -1 1 0
1949270N13270 1949 85 EP MM NOT_NAMED 1949-09-28 00:00:00 TS 13.5000 -90.2000 30 hurdat_atl main 31 22 O_____________ hurdat_atl AL111949 13.5000 -90.2000 TD 30 -1 1 3
1949270N13270 1949 85 EP MM NOT_NAMED 1949-09-28 03:00:00 TS 13.5850 -90.2000 main 22 11 P_____________ AL111949 13.5850 -90.2000 TD 30 -1 2 8
1949270N13270 1949 85 EP MM NOT_NAMED 1949-09-28 06:00:00 TS 13.7000 -90.2000 30 hurdat_atl main 11 0 O_____________ hurdat_atl AL111949 13.7000 -90.2000 TD 30 -1 3 3
1949270N13270 1949 85 EP MM NOT_NAMED 1949-09-28 09:00:00 TS 13.8500 -90.1925 main 0 0 P_____________ AL111949 13.8500 -90.1925 TD 30 -1 3 0
1949270N13270 1949 85 EP MM NOT_NAMED 1949-09-28 12:00:00 TS 14.0000 -90.2000 30 hurdat_atl main 0 0 O_____________ hurdat_atl AL111949 14.0000 -90.2000 TD 30 -1 3 353
1949270N13270 1949 85 EP MM NOT_NAMED 1949-09-28 15:00:00 TS 14.1075 -90.2350 main 0 0 P_____________ AL111949 14.1075 -90.2350 TD 30 -1 2 333
1949270N13270 1949 85 EP MM NOT_NAMED 1949-09-28 18:00:00 TS 14.2000 -90.3000 30 hurdat_atl main 0 0 O_____________ hurdat_atl AL111949 14.2000 -90.3000 TD 30 -1 2 321
1949270N13270 1949 85 EP MM NOT_NAMED 1949-09-28 21:00:00 TS 14.3000 -90.3925 main 0 0 P_____________ AL111949 14.3000 -90.3925 TD 30 -1 3 316
1949270N13270 1949 85 EP MM NOT_NAMED 1949-09-29 00:00:00 TS 14.4000 -90.5000 30 hurdat_atl main 0 0 O_____________ hurdat_atl AL111949 14.4000 -90.5000 TD 30 -1 3 315
1949270N13270 1949 85 EP MM NOT_NAMED 1949-09-29 03:00:00 TS 14.4850 -90.5851 main 0 0 P_____________ AL111949 14.4850 -90.5851 TD 30 -1 3 316
1949270N13270 1949 85 EP MM NOT_NAMED 1949-09-29 06:00:00 TS 14.6000 -90.7000 30 hurdat_atl main 0 0 O_____________ hurdat_atl AL111949 14.6000 -90.7000 TD 30 -1 4 311
1949270N13270 1949 85 EP MM NOT_NAMED 1949-09-29 09:00:00 TS 14.7776 -90.9298 main 0 0 P_____________ AL111949 14.7776 -90.9298 TD 30 -1 6 316
1949270N13270 1949 85 EP MM NOT_NAMED 1949-09-29 12:00:00 TS 15.0000 -91.1000 30 hurdat_atl main 0 0 O_____________ hurdat_atl AL111949 15.0000 -91.1000 TD 30 -1 5 348
1949270N13270 1949 85 EP MM NOT_NAMED 1949-09-29 15:00:00 TS 15.2425 -91.0302 main 0 0 P_____________ AL111949 15.2425 -91.0302 TD 30 -1 5 21
1949270N13270 1949 85 EP MM NOT_NAMED 1949-09-29 18:00:00 TS 15.5000 -90.9000 30 hurdat_atl main 0 0 O_____________ hurdat_atl AL111949 15.5000 -90.9000 TD 30 -1 5 15
1949270N13270 1949 85 EP MM NOT_NAMED 1949-09-29 21:00:00 TS 15.7500 -90.8924 main 0 0 P_____________ AL111949 15.7500 -90.8924 TD 30 -1 5 2
1949270N13270 1949 85 EP MM NOT_NAMED 1949-09-30 00:00:00 TS 16.0000 -90.9000 30 hurdat_atl main 0 0 O_____________ hurdat_atl AL111949 16.0000 -90.9000 TD 30 -1 5 2
1949270N13270 1949 85 EP MM NOT_NAMED 1949-09-30 03:00:00 TS 16.2500 -90.8650 main 0 0 P_____________ AL111949 16.2500 -90.8650 TD 30 -1 5 11
1949270N13270 1949 85 EP MM NOT_NAMED 1949-09-30 06:00:00 TS 16.5000 -90.8000 30 hurdat_atl main 0 0 O_____________ hurdat_atl AL111949 16.5000 -90.8000 TD 30 -1 5 18
1949270N13270 1949 85 EP MM NOT_NAMED 1949-09-30 09:00:00 TS 16.7500 -90.7000 main 0 0 P_____________ AL111949 16.7500 -90.7000 TD 30 -1 5 21
1949270N13270 1949 85 EP MM NOT_NAMED 1949-09-30 12:00:00 TS 17.0000 -90.6000 30 hurdat_atl main 0 0 O_____________ hurdat_atl AL111949 17.0000 -90.6000 TD 30 -1 5 19
1949270N13270 1949 85 EP MM NOT_NAMED 1949-09-30 15:00:00 TS 17.2500 -90.5201 main 0 0 P_____________ AL111949 17.2500 -90.5201 TD 30 -1 5 11
1949270N13270 1949 85 EP MM NOT_NAMED 1949-09-30 18:00:00 TS 17.5000 -90.5000 30 hurdat_atl main 0 0 O_____________ hurdat_atl AL111949 17.5000 -90.5000 TD 30 -1 5 358
1949270N13270 1949 85 EP MM NOT_NAMED 1949-09-30 21:00:00 TS 17.7424 -90.5327 main 0 0 P_____________ AL111949 17.7424 -90.5327 TD 30 -1 5 339
1949270N13270 1949 85 EP MM NOT_NAMED 1949-10-01 00:00:00 TS 18.0000 -90.7000 30 hurdat_atl main 0 0 O_____________ hurdat_atl AL111949 18.0000 -90.7000 TD 30 -1 8 317
1949270N13270 1949 85 EP MM NOT_NAMED 1949-10-01 03:00:00 TS 18.3002 -91.0772 main 0 0 P_____________ AL111949 18.3002 -91.0772 TD 30 -1 10 308
1949270N13270 1949 85 NA GM NOT_NAMED 1949-10-01 06:00:00 TS 18.6000 -91.5000 30 hurdat_atl main 15 15 O_____________ hurdat_atl AL111949 18.6000 -91.5000 TD 30 -1 9 310
1949270N13270 1949 85 NA GM NOT_NAMED 1949-10-01 09:00:00 TS 18.8649 -91.7876 main 31 31 P_____________ AL111949 18.8649 -91.7876 TD 32 -1 7 317
1949270N13270 1949 85 NA GM NOT_NAMED 1949-10-01 12:00:00 TS 19.1000 -92.0000 35 hurdat_atl main 55 55 O_____________ hurdat_atl AL111949 19.1000 -92.0000 TS 35 0 6 321
1949270N13270 1949 85 NA GM NOT_NAMED 1949-10-01 15:00:00 TS 19.2999 -92.1577 main 78 78 P_____________ AL111949 19.2999 -92.1577 TS 37 0 5 325
1949270N13270 1949 85 NA GM NOT_NAMED 1949-10-01 18:00:00 TS 19.5000 -92.3000 40 hurdat_atl main 100 100 O_____________ hurdat_atl AL111949 19.5000 -92.3000 TS 40 0 5 326
1949270N13270 1949 85 NA GM NOT_NAMED 1949-10-01 21:00:00 TS 19.7349 -92.4627 main 123 123 P_____________ AL111949 19.7349 -92.4627 TS 45 0 6 323
1949270N13270 1949 85 NA GM NOT_NAMED 1949-10-02 00:00:00 TS 20.0000 -92.7000 50 hurdat_atl main 156 156 O_____________ hurdat_atl AL111949 20.0000 -92.7000 TS 50 0 8 313
1949270N13270 1949 85 NA GM NOT_NAMED 1949-10-02 03:00:00 TS 20.2852 -93.0998 main 194 194 P_____________ AL111949 20.2853 -93.0998 TS 52 0 10 309
1949270N13270 1949 85 NA GM NOT_NAMED 1949-10-02 06:00:00 TS 20.6000 -93.5000 55 hurdat_atl main 238 238 O_____________ hurdat_atl AL111949 20.6000 -93.5000 TS 55 0 9 318
1949270N13270 1949 85 NA GM NOT_NAMED 1949-10-02 09:00:00 TS 20.9423 -93.7302 main 277 277 P_____________ AL111949 20.9423 -93.7302 TS 57 0 8 332
1949270N13270 1949 85 NA GM NOT_NAMED 1949-10-02 12:00:00 TS 21.3000 -93.9000 60 hurdat_atl main 303 300 O_____________ hurdat_atl AL111949 21.3000 -93.9000 TS 60 0 8 334
1949270N13270 1949 85 NA GM NOT_NAMED 1949-10-02 15:00:00 TS 21.6500 -94.1076 main 312 304 P_____________ AL111949 21.6500 -94.1076 TS 62 0 8 332
1949270N13270 1949 85 NA GM NOT_NAMED 1949-10-02 18:00:00 TS 22.0000 -94.3000 65 hurdat_atl main 312 304 O_____________ hurdat_atl AL111949 22.0000 -94.3000 HU 65 1 8 335
1949270N13270 1949 85 NA GM NOT_NAMED 1949-10-02 21:00:00 TS 22.3424 -94.4502 main 299 299 P_____________ AL111949 22.3424 -94.4502 HU 70 1 8 338
1949270N13270 1949 85 NA GM NOT_NAMED 1949-10-03 00:00:00 TS 22.7000 -94.6000 75 hurdat_atl main 303 299 O_____________ hurdat_atl AL111949 22.7000 -94.6000 HU 75 1 8 336
1949270N13270 1949 85 NA GM NOT_NAMED 1949-10-03 03:00:00 TS 23.0625 -94.7927 main 306 285 P_____________ AL111949 23.0625 -94.7927 HU 80 1 9 335
1949270N13270 1949 85 NA GM NOT_NAMED 1949-10-03 06:00:00 TS 23.5000 -95.0000 85 hurdat_atl main 285 258 O_____________ hurdat_atl AL111949 23.5000 -95.0000 HU 85 2 11 338
1949270N13270 1949 85 NA GM NOT_NAMED 1949-10-03 09:00:00 TS 24.0401 -95.2223 main 258 206 P_____________ AL111949 24.0401 -95.2223 HU 90 2 13 343
1949270N13270 1949 85 NA GM NOT_NAMED 1949-10-03 12:00:00 TS 24.7000 -95.4000 95 hurdat_atl main 206 171 O_____________ hurdat_atl AL111949 24.7000 -95.4000 HU 95 2 15 351
1949270N13270 1949 85 NA GM NOT_NAMED 1949-10-03 15:00:00 TS 25.4775 -95.4729 main 169 159 P_____________ AL111949 25.4775 -95.4729 HU 95 2 16 357
1949270N13270 1949 85 NA GM NOT_NAMED 1949-10-03 18:00:00 TS 26.3000 -95.5000 95 hurdat_atl main 163 163 O_____________ hurdat_atl AL111949 26.3000 -95.5000 HU 95 2 16 357
1949270N13270 1949 85 NA GM NOT_NAMED 1949-10-03 21:00:00 TS 27.0820 -95.5581 main 165 97 P_____________ AL111949 27.0820 -95.5581 HU 95 2 15 357
1949270N13270 1949 85 NA GM NOT_NAMED 1949-10-04 00:00:00 TS 27.8000 -95.6000 95 hurdat_atl main 97 51 O_____________ hurdat_atl AL111949 27.8000 -95.6000 HU 95 2 13 359
1949270N13270 1949 85 NA GM NOT_NAMED 1949-10-04 03:00:00 TS 28.3402 -95.6038 main 51 9 P_____________ AL111949 28.3402 -95.6038 HU 95 2 12 1
1949270N13270 1949 85 NA GM NOT_NAMED 1949-10-04 05:00:00 TS 28.8000 -95.6000 95 965 hurdat_atl main 9 0 O_____________ hurdat_atl AL111949 28.8000 -95.6000 L HU 95 965 2 15 1
1949270N13270 1949 85 NA NA NOT_NAMED 1949-10-04 06:00:00 TS 29.1000 -95.6000 95 965 hurdat_atl main 0 0 O_____________ hurdat_atl AL111949 29.1000 -95.6000 HU 95 965 2 14 9
1949270N13270 1949 85 NA NA NOT_NAMED 1949-10-04 09:00:00 TS 29.7141 -95.4423 main 0 0 P_____________ AL111949 29.7141 -95.4423 HU 75 973 1 11 19
1949270N13270 1949 85 NA NA NOT_NAMED 1949-10-04 12:00:00 TS 30.1000 -95.2000 55 982 hurdat_atl main 0 0 O_____________ hurdat_atl AL111949 30.1000 -95.2000 TS 55 982 0 9 20
1949270N13270 1949 85 NA NA NOT_NAMED 1949-10-04 15:00:00 TS 30.5799 -95.0847 main 0 0 P_____________ AL111949 30.5799 -95.0847 TS 47 986 0 9 11
1949270N13270 1949 85 NA NA NOT_NAMED 1949-10-04 18:00:00 TS 31.0000 -95.0000 40 hurdat_atl main 0 0 I_____________ hurdat_atl AL111949 31.0000 -95.0000 TS 40 990 0 8 11
1949270N13270 1949 85 NA NA NOT_NAMED 1949-10-04 21:00:00 TS 31.3299 -94.9148 main 0 0 P_____________ AL111949 31.3299 -94.9148 TS 37 994 0 6 16
1949270N13270 1949 85 NA NA NOT_NAMED 1949-10-05 00:00:00 TS 31.6000 -94.8000 35 998 hurdat_atl main 0 0 O_____________ hurdat_atl AL111949 31.6000 -94.8000 TS 35 998 0 6 27
1949270N13270 1949 85 NA NA NOT_NAMED 1949-10-05 03:00:00 TS 31.8275 -94.6222 main 0 0 P_____________ AL111949 31.8275 -94.6222 TS 32 -1 6 34
1949270N13270 1949 85 NA NA NOT_NAMED 1949-10-05 06:00:00 TS 32.1000 -94.4000 30 hurdat_atl main 0 0 O_____________ hurdat_atl AL111949 32.1000 -94.4000 TD 30 -1 8 28
1949270N13270 1949 85 NA NA NOT_NAMED 1949-10-05 09:00:00 TS 32.5047 -94.1943 main 0 0 P_____________ AL111949 32.5047 -94.1943 TD 27 -1 10 25
1949270N13270 1949 85 NA NA NOT_NAMED 1949-10-05 12:00:00 TS 33.0000 -93.9000 25 hurdat_atl main 0 0 O_____________ hurdat_atl AL111949 33.0000 -93.9000 TD 25 -1 12 32
1949270N13270 1949 85 NA NA NOT_NAMED 1949-10-05 15:00:00 TS 33.5200 -93.4521 main 0 0 P_____________ AL111949 33.5200 -93.4521 TD 25 -1 14 37
1949270N13270 1949 85 NA NA NOT_NAMED 1949-10-05 18:00:00 TS 34.1000 -92.9000 25 hurdat_atl main 0 0 O_____________ hurdat_atl AL111949 34.1000 -92.9000 TD 25 -1 15 40
1949270N13270 1949 85 NA NA NOT_NAMED 1949-10-05 21:00:00 TS 34.6602 -92.2985 main 0 0 P_____________ AL111949 34.6602 -92.2985 TD 25 -1 16 37
1949270N13270 1949 85 NA NA NOT_NAMED 1949-10-06 00:00:00 TS 35.4000 -91.7000 25 hurdat_atl main 0 0 O_____________ hurdat_atl AL111949 35.4000 -91.7000 TD 25 -1 20 26
1949270N13270 1949 85 NA NA NOT_NAMED 1949-10-06 03:00:00 TS 36.4896 -91.1919 main 0 0 P_____________ AL111949 36.4896 -91.1919 TD 25 -1 24 19
1949270N13270 1949 85 NA NA NOT_NAMED 1949-10-06 06:00:00 ET 37.7000 -90.7000 25 hurdat_atl main 0 0 O_____________ hurdat_atl AL111949 37.7000 -90.7000 EX 25 -4 24 20
1949270N13270 1949 85 NA NA NOT_NAMED 1949-10-06 09:00:00 ET 38.7649 -90.1488 main 0 0 P_____________ AL111949 38.7649 -90.1488 EX 25 -4 23 22
1949270N13270 1949 85 NA NA NOT_NAMED 1949-10-06 12:00:00 ET 39.8000 -89.6000 25 hurdat_atl main 0 0 O_____________ hurdat_atl AL111949 39.8000 -89.6000 EX 25 -4 22 21
1949270N13270 1949 85 NA NA NOT_NAMED 1949-10-06 15:00:00 ET 40.8571 -89.0979 main 0 0 P_____________ AL111949 40.8571 -89.0979 EX 25 -4 22 20
1949270N13270 1949 85 NA NA NOT_NAMED 1949-10-06 18:00:00 ET 41.9000 -88.6000 25 hurdat_atl main 0 0 O_____________ hurdat_atl AL111949 41.9000 -88.6000 EX 25 -4 22 21
1949270N13270 1949 85 NA NA NOT_NAMED 1949-10-06 21:00:00 ET 42.9107 -88.0665 main 0 0 P_____________ AL111949 42.9107 -88.0665 EX 25 -4 22 22
1949270N13270 1949 85 NA NA NOT_NAMED 1949-10-07 00:00:00 ET 43.9000 -87.5000 25 hurdat_atl main 0 O_____________ hurdat_atl AL111949 43.9000 -87.5000 EX 25 -4 21 22

About IBTrACS Database

This database is a web-friendly format of International Best Track Archive for Climate Stewardship (IBTrACS), a global best track data archive curated by NOAA dating back to 1842.

Updated: 2021-10-21